Time;durP1;ratioP1;P1;durP2;ratioP2;P2;SDS_P1;SDS_P2;PMS_P1;PMS_P2;Temp;Humidity;BMP_temperature;BMP_pressure;BME280_temperature;BME280_humidity;BME280_pressure;Samples;Min_cycle;Max_cycle;Signal;HPM_P1;HPM_P2
2021/11/22 00:01:04;;;;;;;;;;;;;;;18.44;66.34;100547.59;5033362;28;1735;-47
2021/11/22 00:03:31;;;;;;;;;;;;;;;18.62;65.44;100555.81;5031135;28;1552;-45
2021/11/22 00:05:58;;;;;;;;;;;;;;;18.47;66.08;100543.78;5033154;28;1459;-44
2021/11/22 00:08:24;;;;;;;;;;;;;;;18.37;66.93;100550.97;5041377;28;1630;-46
2021/11/22 00:10:51;;;;;;;;;;;;;;;18.31;66.87;100552.34;5034235;28;1695;-45
2021/11/22 00:13:17;;;;;;;;;;;;;;;18.25;67.25;100542.19;5038513;28;1998;-45
2021/11/22 00:15:45;;;;;;;;;;;;;;;18.21;67.39;100554.97;5033374;28;1806;-45
2021/11/22 00:18:12;;;;;;;;;;;;;;;18.26;67.20;100527.81;5033126;28;2283;-45
2021/11/22 00:20:38;;;;;;;;;;;;;;;18.58;66.44;100543.69;5036281;28;1698;-44
2021/11/22 00:23:05;;;;;;;;;;;;;;;18.55;66.38;100551.97;5033172;28;1590;-44
2021/11/22 00:25:31;;;;;;;;;;;;;;;18.38;66.49;100541.94;5034800;28;1872;-44
2021/11/22 00:27:58;;;;;;;;;;;;;;;18.28;67.10;100533.88;5034222;28;1400;-44
2021/11/22 00:30:24;;;;;;;;;;;;;;;18.23;67.22;100542.31;5036927;28;1472;-44
2021/11/22 00:32:52;;;;;;;;;;;;;;;18.17;67.03;100550.06;5036951;28;1980;-44
2021/11/22 00:35:19;;;;;;;;;;;;;;;18.12;67.63;100542.41;5031042;28;1614;-44
2021/11/22 00:37:50;;;;;;;;;;;;;;;18.29;66.75;100555.16;5034171;28;1679;-44
2021/11/22 00:40:17;;;;;;;;;;;;;;;18.58;65.56;100551.72;5032149;28;1492;-44
2021/11/22 00:42:45;;;;;;;;;;;;;;;18.42;66.42;100544.22;5031529;28;1471;-45
2021/11/22 00:45:11;;;;;;;;;;;;;;;18.29;67.32;100543.59;5033240;28;1513;-46
2021/11/22 00:47:38;;;;;;;;;;;;;;;18.21;66.64;100541.59;5032911;28;1755;-45
2021/11/22 00:50:06;;;;;;;;;;;;;;;18.18;67.11;100536.50;5041350;28;1595;-44
2021/11/22 00:52:34;;;;;;;;;;;;;;;18.14;67.42;100551.16;5032160;28;1914;-44
2021/11/22 00:55:01;;;;;;;;;;;;;;;18.19;66.46;100532.88;5032587;28;1661;-44
2021/11/22 00:57:28;;;;;;;;;;;;;;;18.55;65.51;100551.16;5032712;28;1399;-45
2021/11/22 00:59:54;;;;;;;;;;;;;;;18.47;66.23;100536.59;5040105;28;1389;-44
2021/11/22 01:02:22;;;;;;;;;;;;;;;18.33;67.14;100539.66;5035018;28;1770;-43
2021/11/22 01:04:48;;;;;;;;;;;;;;;18.22;67.17;100531.72;5032850;28;1634;-44
2021/11/22 01:07:16;;;;;;;;;;;;;;;18.16;67.33;100538.47;5036137;28;1589;-44
2021/11/22 01:09:43;;;;;;;;;;;;;;;18.12;67.01;100528.19;5032484;28;1914;-44
2021/11/22 01:12:10;;;;;;;;;;;;;;;18.10;67.47;100539.00;5035585;28;1857;-43
2021/11/22 01:14:37;;;;;;;;;;;;;;;18.32;66.40;100537.13;5037280;28;1973;-43
2021/11/22 01:17:03;;;;;;;;;;;;;;;18.52;65.74;100541.53;5034817;28;1683;-43
2021/11/22 01:19:30;;;;;;;;;;;;;;;18.36;66.78;100538.53;5032312;28;1392;-44
2021/11/22 01:21:57;;;;;;;;;;;;;;;18.22;67.58;100532.59;5032293;28;1870;-46
2021/11/22 01:24:25;;;;;;;;;;;;;;;18.14;67.14;100529.72;5032504;28;1707;-44
2021/11/22 01:26:51;;;;;;;;;;;;;;;18.10;67.13;100531.00;5038200;28;1583;-44
2021/11/22 01:29:18;;;;;;;;;;;;;;;18.10;67.33;100544.38;5032637;28;2008;-45
2021/11/22 01:31:44;;;;;;;;;;;;;;;18.33;65.96;100531.63;5032431;28;1756;-43
2021/11/22 01:34:11;;;;;;;;;;;;;;;18.45;66.04;100524.34;5031385;28;1972;-46
2021/11/22 01:36:37;;;;;;;;;;;;;;;18.32;66.70;100529.09;5040490;28;1649;-45
2021/11/22 01:39:04;;;;;;;;;;;;;;;18.22;66.81;100529.06;5040374;28;1941;-44
2021/11/22 01:41:32;;;;;;;;;;;;;;;18.11;67.18;100524.66;5031886;28;1768;-44
2021/11/22 01:43:59;;;;;;;;;;;;;;;18.08;67.20;100536.50;5032527;28;1674;-43
2021/11/22 01:46:26;;;;;;;;;;;;;;;18.08;66.67;100541.84;5035609;28;1947;-44
2021/11/22 01:48:56;;;;;;;;;;;;;;;18.32;66.34;100521.06;5035241;28;1759;-43
2021/11/22 01:51:22;;;;;;;;;;;;;;;18.47;65.86;100525.06;5045674;28;1769;-43
2021/11/22 01:53:49;;;;;;;;;;;;;;;18.33;66.38;100523.59;5031597;28;1923;-44
2021/11/22 01:56:15;;;;;;;;;;;;;;;18.18;66.42;100531.16;5036141;28;1516;-44
2021/11/22 01:58:43;;;;;;;;;;;;;;;18.11;66.87;100519.31;5041452;28;1426;-43
2021/11/22 02:01:09;;;;;;;;;;;;;;;18.06;67.04;100518.88;5032469;28;1895;-44
2021/11/22 02:03:36;;;;;;;;;;;;;;;18.11;66.82;100522.00;5032629;28;1548;-43
2021/11/22 02:06:02;;;;;;;;;;;;;;;18.35;66.18;100526.16;5039153;28;1644;-43
2021/11/22 02:08:29;;;;;;;;;;;;;;;18.38;66.03;100526.72;5035458;28;1637;-44
2021/11/22 02:10:55;;;;;;;;;;;;;;;18.19;66.64;100527.50;5036356;28;1894;-43
2021/11/22 02:13:22;;;;;;;;;;;;;;;18.15;66.55;100536.78;5035864;28;1977;-45
2021/11/22 02:15:50;;;;;;;;;;;;;;;18.07;66.94;100533.94;5035618;28;1586;-44
2021/11/22 02:18:18;;;;;;;;;;;;;;;18.03;67.26;100529.84;5039191;28;1662;-43
2021/11/22 02:20:46;;;;;;;;;;;;;;;18.15;66.30;100525.25;5036317;28;1816;-43
2021/11/22 02:23:13;;;;;;;;;;;;;;;18.46;65.69;100532.25;5035765;28;1751;-44
2021/11/22 02:25:41;;;;;;;;;;;;;;;18.35;66.28;100531.50;5035515;28;1980;-44
2021/11/22 02:28:08;;;;;;;;;;;;;;;18.20;66.66;100531.88;5036039;28;1844;-43
2021/11/22 02:30:38;;;;;;;;;;;;;;;18.11;66.61;100540.72;5034917;28;1431;-44
2021/11/22 02:33:06;;;;;;;;;;;;;;;18.04;66.80;100528.84;5034805;28;1902;-44
2021/11/22 02:35:34;;;;;;;;;;;;;;;18.01;66.59;100527.31;5033238;28;1574;-43
2021/11/22 02:38:02;;;;;;;;;;;;;;;18.27;65.93;100533.03;5038349;28;1736;-44
2021/11/22 02:40:28;;;;;;;;;;;;;;;18.36;65.78;100528.66;5039365;28;1520;-44
2021/11/22 02:42:55;;;;;;;;;;;;;;;18.21;66.20;100530.91;5035454;28;1561;-43
2021/11/22 02:45:21;;;;;;;;;;;;;;;18.12;66.80;100525.50;5044229;28;1621;-44
2021/11/22 02:47:50;;;;;;;;;;;;;;;18.04;67.08;100540.41;5034958;28;1572;-44
2021/11/22 02:50:19;;;;;;;;;;;;;;;18.01;67.11;100539.84;5041814;28;1901;-43
2021/11/22 02:52:45;;;;;;;;;;;;;;;18.13;66.56;100548.63;5034661;28;1933;-44
2021/11/22 02:55:14;;;;;;;;;;;;;;;18.42;66.03;100538.00;5034788;28;1906;-43
2021/11/22 02:57:41;;;;;;;;;;;;;;;18.35;66.29;100544.91;5043174;28;1613;-45
2021/11/22 03:02:53;;;;;;;;;;;;;;;18.04;66.66;100544.91;5047312;22;1846;-43
2021/11/22 03:05:19;;;;;;;;;;;;;;;18.02;66.84;100549.56;5032937;28;1382;-43
2021/11/22 03:07:46;;;;;;;;;;;;;;;18.00;66.93;100549.69;5032959;28;1535;-43
2021/11/22 03:10:16;;;;;;;;;;;;;;;18.27;66.47;100550.94;5031609;28;1685;-43
2021/11/22 03:12:42;;;;;;;;;;;;;;;18.33;66.14;100545.03;5033146;28;1537;-43
2021/11/22 03:15:10;;;;;;;;;;;;;;;18.19;66.67;100543.56;5032598;28;1984;-43
2021/11/22 03:17:44;;;;;;;;;;;;;;;18.06;66.46;100557.19;5031460;28;1945;-43
2021/11/22 03:20:11;;;;;;;;;;;;;;;17.99;66.93;100556.03;5032553;28;1562;-43
2021/11/22 03:22:39;;;;;;;;;;;;;;;17.93;66.89;100556.56;5032970;28;1668;-43
2021/11/22 03:25:31;;;;;;;;;;;;;;;18.19;66.43;100569.50;5033074;28;1648;-43
2021/11/22 03:27:59;;;;;;;;;;;;;;;18.37;65.90;100553.63;5032652;28;1683;-43
2021/11/22 03:30:35;;;;;;;;;;;;;;;18.18;66.78;100562.44;5033515;28;1800;-43
2021/11/22 03:33:02;;;;;;;;;;;;;;;18.04;66.77;100566.31;5024314;28;1603;-43
2021/11/22 03:35:32;;;;;;;;;;;;;;;17.97;66.93;100559.81;5034545;28;1910;-43
2021/11/22 03:38:10;;;;;;;;;;;;;;;17.94;66.85;100570.78;5032982;28;1634;-43
2021/11/22 03:40:42;;;;;;;;;;;;;;;18.19;65.84;100567.66;5031046;28;1903;-43
2021/11/22 03:43:24;;;;;;;;;;;;;;;18.29;66.44;100565.84;5027772;28;1707;-43
2021/11/22 03:45:51;;;;;;;;;;;;;;;18.10;66.50;100571.13;5032902;28;1941;-43
2021/11/22 03:48:19;;;;;;;;;;;;;;;18.01;66.82;100574.63;5035627;28;1662;-43
2021/11/22 03:50:49;;;;;;;;;;;;;;;17.97;67.22;100583.91;5027743;28;1646;-43
2021/11/22 03:53:17;;;;;;;;;;;;;;;18.00;66.65;100586.28;5032272;28;1879;-43
2021/11/22 03:55:43;;;;;;;;;;;;;;;18.24;66.09;100578.81;5027785;28;1523;-43
2021/11/22 03:58:12;;;;;;;;;;;;;;;18.29;66.21;100571.22;5033916;28;1790;-43
2021/11/22 04:00:40;;;;;;;;;;;;;;;18.13;66.08;100573.56;5031476;28;1754;-43
2021/11/22 04:03:07;;;;;;;;;;;;;;;18.00;66.86;100586.28;5028189;28;1664;-44
2021/11/22 04:05:36;;;;;;;;;;;;;;;17.94;66.60;100590.34;5030895;28;1739;-43
2021/11/22 04:08:17;;;;;;;;;;;;;;;17.95;66.35;100586.72;5026782;28;1389;-43
2021/11/22 04:10:44;;;;;;;;;;;;;;;18.29;65.54;100584.59;5032480;28;1666;-43
2021/11/22 04:13:15;;;;;;;;;;;;;;;18.26;66.27;100576.84;5032207;28;1632;-43
2021/11/22 04:15:45;;;;;;;;;;;;;;;18.06;66.51;100577.72;5032222;28;1906;-44
2021/11/22 04:18:13;;;;;;;;;;;;;;;17.99;66.76;100611.38;5022865;28;1741;-43
2021/11/22 04:20:41;;;;;;;;;;;;;;;17.92;66.73;100591.47;5028384;28;1551;-43
2021/11/22 04:23:10;;;;;;;;;;;;;;;18.01;66.62;100588.84;5031711;28;1779;-43
2021/11/22 04:25:37;;;;;;;;;;;;;;;18.28;65.41;100577.56;5027605;28;1761;-44
2021/11/22 04:28:05;;;;;;;;;;;;;;;18.22;66.00;100585.25;5024671;28;1896;-43
2021/11/22 04:30:35;;;;;;;;;;;;;;;18.07;66.86;100587.47;5033761;28;1796;-43
2021/11/22 04:33:02;;;;;;;;;;;;;;;17.93;66.67;100593.19;5029648;28;1633;-43
2021/11/22 04:35:30;;;;;;;;;;;;;;;17.88;66.97;100594.41;5032822;28;1983;-42
2021/11/22 04:37:59;;;;;;;;;;;;;;;17.94;66.47;100592.19;5031827;28;1935;-43
2021/11/22 04:40:29;;;;;;;;;;;;;;;18.26;65.87;100592.91;5032604;28;1557;-43
2021/11/22 04:43:07;;;;;;;;;;;;;;;18.18;66.51;100598.06;5032046;28;1513;-43
2021/11/22 04:45:34;;;;;;;;;;;;;;;18.01;66.81;100596.03;5032151;28;1647;-43
2021/11/22 04:48:03;;;;;;;;;;;;;;;17.91;66.30;100604.00;5025987;28;1644;-42
2021/11/22 04:50:30;;;;;;;;;;;;;;;17.87;66.77;100607.94;5031979;28;1566;-43
2021/11/22 04:53:08;;;;;;;;;;;;;;;18.06;66.06;100612.53;5029813;28;1618;-43
2021/11/22 04:55:37;;;;;;;;;;;;;;;18.22;65.93;100602.19;5020058;28;1971;-43
2021/11/22 04:58:12;;;;;;;;;;;;;;;18.08;66.08;100603.41;5031469;28;1511;-43
2021/11/22 05:00:49;;;;;;;;;;;;;;;17.93;66.67;100601.22;5030179;28;1828;-43
2021/11/22 05:03:20;;;;;;;;;;;;;;;17.89;66.85;100614.00;5021983;28;1586;-43
2021/11/22 05:05:46;;;;;;;;;;;;;;;17.94;66.37;100616.25;5023261;28;1843;-43
2021/11/22 05:08:22;;;;;;;;;;;;;;;18.22;65.70;100606.69;5023089;28;1709;-43
2021/11/22 05:10:48;;;;;;;;;;;;;;;18.20;66.14;100609.47;5031251;28;1785;-43
2021/11/22 05:13:18;;;;;;;;;;;;;;;18.03;66.37;100607.44;5022916;28;1429;-42
2021/11/22 05:15:50;;;;;;;;;;;;;;;17.92;66.38;100604.84;5029869;28;1902;-43
2021/11/22 05:18:17;;;;;;;;;;;;;;;17.85;66.84;100616.06;5026756;28;1757;-43
2021/11/22 05:20:56;;;;;;;;;;;;;;;17.96;66.49;100620.50;5030566;28;1394;-43
2021/11/22 05:26:06;;;;;;;;;;;;;;;18.53;64.95;100620.06;5025438;28;2260;-43
2021/11/22 05:28:33;;;;;;;;;;;;;;;18.65;64.93;100627.84;5028665;28;1460;-43
2021/11/22 05:31:03;;;;;;;;;;;;;;;18.64;64.55;100623.47;5023698;28;1502;-46
2021/11/22 05:33:30;;;;;;;;;;;;;;;18.75;64.19;100630.53;5015836;28;10939;-43
2021/11/22 05:35:57;;;;;;;;;;;;;;;18.80;64.38;100632.84;5052685;28;1977;-43
2021/11/22 05:38:24;;;;;;;;;;;;;;;18.82;64.84;100631.72;5044005;28;1525;-43
2021/11/22 05:40:51;;;;;;;;;;;;;;;18.58;64.60;100641.91;5044057;28;1660;-43
2021/11/22 05:43:19;;;;;;;;;;;;;;;18.35;65.03;100638.59;5047526;28;1805;-43
2021/11/22 05:45:49;;;;;;;;;;;;;;;18.20;65.41;100663.00;5051469;28;1337;-44
2021/11/22 05:48:20;;;;;;;;;;;;;;;18.11;65.77;100645.09;5050592;28;2028;-43
2021/11/22 05:51:00;;;;;;;;;;;;;;;18.08;66.07;100656.91;5055076;28;1601;-43
2021/11/22 05:53:36;;;;;;;;;;;;;;;18.13;66.16;100659.19;5046771;28;1544;-43
2021/11/22 05:56:08;;;;;;;;;;;;;;;18.15;66.41;100659.06;5052158;28;1902;-43
2021/11/22 05:58:38;;;;;;;;;;;;;;;18.18;66.88;100669.47;5048292;28;1760;-43
2021/11/22 06:01:10;;;;;;;;;;;;;;;18.11;66.83;100679.88;5051379;28;1747;-43
2021/11/22 06:03:47;;;;;;;;;;;;;;;18.00;67.02;100682.63;5046031;28;1691;-43
2021/11/22 06:06:17;;;;;;;;;;;;;;;17.92;67.07;100671.72;5043252;28;1502;-44
2021/11/22 06:08:45;;;;;;;;;;;;;;;17.91;66.36;100678.06;5048621;28;1402;-44
2021/11/22 06:11:11;;;;;;;;;;;;;;;17.88;66.81;100673.81;5047462;28;1750;-44
2021/11/22 06:13:39;;;;;;;;;;;;;;;17.89;65.55;100681.72;5051725;28;2027;-43
2021/11/22 06:16:09;;;;;;;;;;;;;;;17.84;65.84;100688.41;5048906;28;1980;-43
2021/11/22 06:18:38;;;;;;;;;;;;;;;17.80;66.77;100685.13;5050076;28;1525;-43
2021/11/22 06:21:11;;;;;;;;;;;;;;;17.75;68.53;100694.53;5053531;28;1481;-43
2021/11/22 06:23:37;;;;;;;;;;;;;;;17.72;68.71;100702.81;5042591;28;1860;-43
2021/11/22 06:26:04;;;;;;;;;;;;;;;17.69;68.82;100695.91;5044063;28;1396;-43
2021/11/22 06:28:30;;;;;;;;;;;;;;;17.69;69.40;100698.56;5045489;28;1690;-42
2021/11/22 06:30:57;;;;;;;;;;;;;;;17.68;69.89;100692.34;5048874;28;1521;-43
2021/11/22 06:33:23;;;;;;;;;;;;;;;17.98;67.60;100690.78;5042297;28;1737;-43
2021/11/22 06:35:51;;;;;;;;;;;;;;;18.17;66.96;100706.13;5049866;28;1979;-43
2021/11/22 06:38:18;;;;;;;;;;;;;;;18.17;68.00;100710.63;5050376;28;1540;-43
2021/11/22 06:40:45;;;;;;;;;;;;;;;18.14;67.74;100690.31;5042833;28;1683;-43
2021/11/22 06:43:11;;;;;;;;;;;;;;;18.35;67.68;100702.84;5050322;28;1634;-42
2021/11/22 06:45:38;;;;;;;;;;;;;;;18.44;67.05;100702.03;5048829;28;1455;-43
2021/11/22 06:48:05;;;;;;;;;;;;;;;18.49;66.97;100705.16;5043774;28;1653;-43
2021/11/22 06:50:32;;;;;;;;;;;;;;;18.55;66.78;100706.47;5043162;28;1578;-43
2021/11/22 06:53:00;;;;;;;;;;;;;;;18.60;66.95;100729.19;5047409;28;1755;-43
2021/11/22 06:55:27;;;;;;;;;;;;;;;18.58;66.88;100715.09;5045450;28;1905;-43
2021/11/22 06:57:53;;;;;;;;;;;;;;;18.65;66.58;100713.53;5045531;28;1697;-42
2021/11/22 07:00:21;;;;;;;;;;;;;;;18.64;67.03;100708.31;5042422;28;1785;-45
2021/11/22 07:02:55;;;;;;;;;;;;;;;18.71;66.62;100712.16;5045594;28;1741;-43
2021/11/22 07:05:24;;;;;;;;;;;;;;;18.73;66.54;100706.69;5052498;28;1647;-43
2021/11/22 07:07:52;;;;;;;;;;;;;;;18.83;66.40;100716.47;5041773;28;1691;-43
2021/11/22 07:10:21;;;;;;;;;;;;;;;18.85;65.74;100721.69;5048074;28;1455;-43
2021/11/22 07:12:47;;;;;;;;;;;;;;;18.91;66.01;100718.47;5050014;28;1655;-44
2021/11/22 07:15:18;;;;;;;;;;;;;;;19.04;66.32;100715.56;5051952;28;1983;-42
2021/11/22 07:17:45;;;;;;;;;;;;;;;19.12;65.91;100714.84;5051514;28;2209;-42
2021/11/22 07:20:12;;;;;;;;;;;;;;;19.03;66.41;100727.25;5042682;28;1827;-43
2021/11/22 07:22:38;;;;;;;;;;;;;;;19.02;66.48;100717.50;5049284;28;1583;-43
2021/11/22 07:25:05;;;;;;;;;;;;;;;19.03;65.95;100725.41;5041892;28;1386;-42
2021/11/22 07:27:33;;;;;;;;;;;;;;;19.07;66.36;100710.75;5044582;28;1608;-43
2021/11/22 07:29:59;;;;;;;;;;;;;;;19.08;65.76;100723.19;5043179;28;1630;-44
2021/11/22 07:32:27;;;;;;;;;;;;;;;19.16;66.14;100735.03;5047458;28;1512;-43
2021/11/22 07:34:54;;;;;;;;;;;;;;;19.14;65.25;100740.56;5044294;28;1910;-43
2021/11/22 07:37:20;;;;;;;;;;;;;;;19.18;66.09;100743.78;5050097;28;1659;-43
2021/11/22 07:39:47;;;;;;;;;;;;;;;19.20;65.63;100742.69;5048217;28;1717;-43
2021/11/22 07:42:13;;;;;;;;;;;;;;;19.22;65.28;100731.81;5040122;28;1437;-43
2021/11/22 07:44:41;;;;;;;;;;;;;;;19.30;65.33;100748.06;5042513;28;1565;-42
2021/11/22 07:47:08;;;;;;;;;;;;;;;19.41;65.86;100745.25;5047872;28;1678;-43
2021/11/22 07:49:35;;;;;;;;;;;;;;;19.51;66.04;100744.44;5048250;28;1823;-42
2021/11/22 07:52:01;;;;;;;;;;;;;;;19.63;65.23;100738.78;5051567;28;1573;-44
2021/11/22 07:54:28;;;;;;;;;;;;;;;19.62;65.24;100741.63;5044518;28;1898;-43
2021/11/22 07:56:54;;;;;;;;;;;;;;;19.66;65.47;100743.03;5044936;28;1872;-43
2021/11/22 07:59:21;;;;;;;;;;;;;;;19.52;66.05;100755.03;5049200;28;1976;-42
2021/11/22 08:01:49;;;;;;;;;;;;;;;19.63;64.63;100740.63;5042114;28;1667;-43
2021/11/22 08:04:17;;;;;;;;;;;;;;;19.63;64.45;100744.13;5043461;28;1601;-43
2021/11/22 08:06:46;;;;;;;;;;;;;;;19.60;65.37;100749.81;5044986;28;1346;-43
2021/11/22 08:09:16;;;;;;;;;;;;;;;19.53;65.92;100743.28;5038082;28;1981;-43
2021/11/22 08:12:02;;;;;;;;;;;;;;;19.68;65.15;100754.47;5040683;28;1645;-42
2021/11/22 08:14:28;;;;;;;;;;;;;;;19.65;65.00;100757.41;5043566;28;1823;-45
2021/11/22 08:16:56;;;;;;;;;;;;;;;19.71;65.31;100762.25;5040036;28;1905;-43
2021/11/22 08:19:23;;;;;;;;;;;;;;;19.72;64.84;100757.75;5046139;28;1839;-42
2021/11/22 08:21:49;;;;;;;;;;;;;;;19.74;64.96;100751.25;5048715;28;1445;-43
2021/11/22 08:24:16;;;;;;;;;;;;;;;19.76;64.77;100759.19;5041045;28;1819;-42
2021/11/22 08:26:43;;;;;;;;;;;;;;;19.77;65.58;100744.75;5047877;28;1564;-43
2021/11/22 08:29:09;;;;;;;;;;;;;;;19.95;64.33;100759.16;5039180;28;1901;-43
2021/11/22 08:31:36;;;;;;;;;;;;;;;19.87;64.39;100748.28;5037658;28;2005;-43
2021/11/22 08:34:03;;;;;;;;;;;;;;;19.79;65.53;100748.97;5048452;28;1550;-43
2021/11/22 08:36:30;;;;;;;;;;;;;;;19.82;64.61;100750.56;5044422;28;1973;-42
2021/11/22 08:38:56;;;;;;;;;;;;;;;19.71;65.96;100730.06;5042324;28;1575;-43
2021/11/22 08:41:23;;;;;;;;;;;;;;;19.82;65.03;100743.34;5043007;28;1931;-42
2021/11/22 08:43:49;;;;;;;;;;;;;;;19.85;64.43;100755.63;5048212;28;1534;-47
2021/11/22 08:46:16;;;;;;;;;;;;;;;19.83;64.90;100745.03;5045334;28;1633;-43
2021/11/22 08:48:42;;;;;;;;;;;;;;;19.81;64.36;100740.78;5039556;28;1581;-42
2021/11/22 08:51:10;;;;;;;;;;;;;;;19.89;65.15;100745.47;5042207;28;1758;-43
2021/11/22 08:53:37;;;;;;;;;;;;;;;19.86;64.89;100739.38;5046034;28;1792;-43
2021/11/22 08:56:03;;;;;;;;;;;;;;;19.86;65.08;100722.44;5036976;28;1967;-43
2021/11/22 08:58:30;;;;;;;;;;;;;;;19.95;65.01;100736.84;5044133;28;1872;-42
2021/11/22 09:00:57;;;;;;;;;;;;;;;19.89;65.58;100724.84;5043478;28;1628;-45
2021/11/22 09:03:23;;;;;;;;;;;;;;;19.88;65.11;100725.00;5047388;28;1778;-43
2021/11/22 09:05:56;;;;;;;;;;;;;;;19.92;64.69;100718.34;5041768;28;1689;-42
2021/11/22 09:08:24;;;;;;;;;;;;;;;19.90;64.18;100718.50;5045877;28;1492;-42
2021/11/22 09:10:51;;;;;;;;;;;;;;;19.96;65.17;100700.97;5040249;28;1554;-44
2021/11/22 09:13:18;;;;;;;;;;;;;;;19.99;64.48;100706.88;5040568;28;1596;-43
2021/11/22 09:15:45;;;;;;;;;;;;;;;20.02;65.15;100716.50;5049078;28;1906;-43
2021/11/22 09:18:11;;;;;;;;;;;;;;;20.04;64.83;100701.09;5041885;28;1644;-42
2021/11/22 09:20:38;;;;;;;;;;;;;;;20.04;64.87;100706.47;5043696;28;1572;-43
2021/11/22 09:23:04;;;;;;;;;;;;;;;19.99;64.79;100708.72;5048187;28;1588;-43
2021/11/22 09:25:33;;;;;;;;;;;;;;;20.05;64.34;100716.19;5043920;28;1690;-44
2021/11/22 09:28:00;;;;;;;;;;;;;;;20.08;64.32;100707.88;5041396;28;1667;-43
2021/11/22 09:30:26;;;;;;;;;;;;;;;20.09;64.94;100706.88;5046261;28;1453;-43
2021/11/22 09:32:53;;;;;;;;;;;;;;;20.08;64.14;100704.34;5045342;28;1662;-43
2021/11/22 09:35:20;;;;;;;;;;;;;;;20.16;64.22;100699.94;5054691;28;1993;-42
2021/11/22 09:37:47;;;;;;;;;;;;;;;20.22;63.59;100696.66;5047349;28;1601;-43
2021/11/22 09:40:13;;;;;;;;;;;;;;;20.17;64.38;100711.50;5042524;28;1420;-43
2021/11/22 09:42:41;;;;;;;;;;;;;;;20.24;64.27;100697.38;5045826;28;1624;-42
2021/11/22 09:45:10;;;;;;;;;;;;;;;20.20;64.75;100697.81;5040694;28;2065;-42
2021/11/22 09:47:37;;;;;;;;;;;;;;;20.21;64.24;100688.75;5044637;28;1579;-45
2021/11/22 09:50:06;;;;;;;;;;;;;;;20.22;64.07;100690.47;5045742;28;1618;-43
2021/11/22 09:52:33;;;;;;;;;;;;;;;20.24;64.48;100683.09;5047508;28;1754;-43
2021/11/22 09:55:00;;;;;;;;;;;;;;;20.21;64.90;100688.75;5049456;28;1761;-43
2021/11/22 09:57:26;;;;;;;;;;;;;;;20.20;63.88;100695.13;5048469;28;1906;-42
2021/11/22 09:59:54;;;;;;;;;;;;;;;20.24;64.05;100683.94;5052622;28;1517;-43
2021/11/22 10:02:20;;;;;;;;;;;;;;;20.21;64.82;100691.44;5035377;28;1664;-43
2021/11/22 10:04:47;;;;;;;;;;;;;;;20.14;64.24;100676.91;5034557;28;1639;-43
2021/11/22 10:07:16;;;;;;;;;;;;;;;20.17;65.03;100679.28;5036265;28;1835;-43
2021/11/22 10:09:44;;;;;;;;;;;;;;;20.18;64.14;100672.94;5036089;28;1729;-43
2021/11/22 10:12:13;;;;;;;;;;;;;;;20.23;64.99;100676.03;5043881;28;1512;-42
2021/11/22 10:14:41;;;;;;;;;;;;;;;20.16;64.14;100673.09;5045244;28;2015;-43
2021/11/22 10:17:26;;;;;;;;;;;;;;;19.69;66.34;100667.63;5046157;28;2036;-42
2021/11/22 10:20:27;;;;;;;;;;;;;;;19.41;67.23;100669.31;5047322;28;1531;-44
2021/11/22 10:22:55;;;;;;;;;;;;;;;19.24;66.62;100662.84;5000220;28;2002;-43
2021/11/22 10:25:33;;;;;;;;;;;;;;;19.19;66.68;100662.41;5005826;28;1681;-42
2021/11/22 10:28:01;;;;;;;;;;;;;;;19.13;67.28;100668.31;5019695;28;1650;-43
2021/11/22 10:30:28;;;;;;;;;;;;;;;19.08;67.99;100661.53;5040135;28;1605;-42
2021/11/22 10:32:56;;;;;;;;;;;;;;;19.03;67.66;100663.78;5044919;28;1933;-43
2021/11/22 10:35:24;;;;;;;;;;;;;;;18.99;67.56;100669.56;5049789;28;1983;-43
2021/11/22 10:38:01;;;;;;;;;;;;;;;18.94;67.62;100661.94;5052932;28;1815;-43
2021/11/22 10:40:28;;;;;;;;;;;;;;;18.90;68.21;100656.97;5039668;28;1834;-43
2021/11/22 10:42:55;;;;;;;;;;;;;;;18.87;67.29;100666.13;5045556;28;1380;-43
2021/11/22 10:45:26;;;;;;;;;;;;;;;18.85;68.09;100655.56;5050399;28;1663;-43
2021/11/22 10:48:11;;;;;;;;;;;;;;;18.80;68.48;100647.09;5038280;28;1468;-43
2021/11/22 10:50:47;;;;;;;;;;;;;;;18.81;67.76;100642.56;5038869;28;1446;-42
2021/11/22 10:53:13;;;;;;;;;;;;;;;18.79;68.66;100652.56;5047676;28;1502;-42
2021/11/22 10:55:47;;;;;;;;;;;;;;;18.77;68.14;100649.16;5050002;28;1972;-43
2021/11/22 10:58:46;;;;;;;;;;;;;;;18.70;67.92;100654.19;5044617;28;1672;-43
2021/11/22 11:01:17;;;;;;;;;;;;;;;18.71;68.28;100658.59;5040485;28;1695;-44
2021/11/22 11:03:56;;;;;;;;;;;;;;;18.68;68.78;100643.66;5045438;28;1621;-43
2021/11/22 11:06:34;;;;;;;;;;;;;;;18.65;67.90;100657.28;5054136;28;1564;-42
2021/11/22 11:09:01;;;;;;;;;;;;;;;18.65;68.59;100643.91;5046049;28;1884;-44
2021/11/22 11:11:27;;;;;;;;;;;;;;;18.62;68.87;100654.03;5039324;28;1596;-46
2021/11/22 11:13:54;;;;;;;;;;;;;;;18.62;68.26;100648.69;5041148;28;1603;-43
2021/11/22 11:16:21;;;;;;;;;;;;;;;18.64;68.38;100662.78;5050452;28;1906;-42
2021/11/22 11:18:56;;;;;;;;;;;;;;;18.61;68.48;100642.47;5045458;28;1659;-42
2021/11/22 11:21:28;;;;;;;;;;;;;;;18.64;68.87;100660.97;5054259;28;1862;-42
2021/11/22 11:23:54;;;;;;;;;;;;;;;18.59;68.79;100641.78;5044515;28;1894;-43
2021/11/22 11:26:21;;;;;;;;;;;;;;;18.60;67.97;100643.47;5039781;28;1386;-42
2021/11/22 11:28:48;;;;;;;;;;;;;;;18.58;68.50;100636.53;5043918;28;1684;-43
2021/11/22 11:31:15;;;;;;;;;;;;;;;18.57;68.00;100638.38;5048886;28;1436;-44
2021/11/22 11:33:41;;;;;;;;;;;;;;;18.59;68.30;100641.78;5040098;28;1963;-44
2021/11/22 11:36:13;;;;;;;;;;;;;;;18.54;65.19;100637.81;5045744;28;1902;-42
2021/11/22 11:38:49;;;;;;;;;;;;;;;18.46;64.37;100636.66;5044142;28;1804;-42
2021/11/22 11:41:24;;;;;;;;;;;;;;;18.47;60.38;100630.31;5046348;28;1514;-43
2021/11/22 11:43:58;;;;;;;;;;;;;;;18.57;62.69;100622.31;5048299;28;1646;-43
2021/11/22 11:46:34;;;;;;;;;;;;;;;18.44;62.86;100613.66;5050901;28;1710;-42
2021/11/22 11:49:01;;;;;;;;;;;;;;;18.33;63.34;100625.34;5042124;28;1801;-42
2021/11/22 11:51:37;;;;;;;;;;;;;;;18.24;60.54;100621.66;5054463;28;1479;-42
2021/11/22 11:54:05;;;;;;;;;;;;;;;18.14;60.00;100634.09;5050342;28;1527;-42
2021/11/22 11:56:33;;;;;;;;;;;;;;;18.21;61.19;100637.13;5047537;28;1906;-42
2021/11/22 11:59:12;;;;;;;;;;;;;;;18.23;61.18;100621.78;5053965;28;1569;-43
2021/11/22 12:01:54;;;;;;;;;;;;;;;18.33;60.77;100627.16;5040451;28;1810;-43
2021/11/22 12:04:21;;;;;;;;;;;;;;;18.29;61.99;100624.75;5045598;28;1796;-43
2021/11/22 12:06:49;;;;;;;;;;;;;;;18.26;62.08;100619.69;5044436;28;1642;-43
2021/11/22 12:09:29;;;;;;;;;;;;;;;18.27;62.03;100625.88;5046000;28;1798;-43
2021/11/22 12:11:58;;;;;;;;;;;;;;;18.25;62.50;100626.00;5040003;28;1496;-44
2021/11/22 12:14:39;;;;;;;;;;;;;;;18.26;61.99;100630.38;5049331;28;1957;-43
2021/11/22 12:17:06;;;;;;;;;;;;;;;18.31;61.60;100639.84;5045023;28;1993;-42
2021/11/22 12:19:40;;;;;;;;;;;;;;;18.24;61.85;100632.34;5046063;28;1574;-42
2021/11/22 12:22:09;;;;;;;;;;;;;;;18.27;62.52;100615.16;5050060;28;1515;-43
2021/11/22 12:24:38;;;;;;;;;;;;;;;18.26;62.23;100635.75;5048917;28;1692;-42
2021/11/22 12:27:19;;;;;;;;;;;;;;;18.27;63.64;100637.41;5044398;28;1337;-43
2021/11/22 12:29:45;;;;;;;;;;;;;;;18.26;63.53;100635.75;5042738;28;1792;-43
2021/11/22 12:32:24;;;;;;;;;;;;;;;18.28;63.85;100627.56;5047562;28;1609;-42
2021/11/22 12:34:55;;;;;;;;;;;;;;;18.27;63.22;100625.88;5050265;28;1607;-42
2021/11/22 12:37:23;;;;;;;;;;;;;;;18.25;63.48;100628.69;5052402;28;1902;-43
2021/11/22 12:39:50;;;;;;;;;;;;;;;18.21;62.80;100618.38;5047831;28;1467;-43
2021/11/22 12:42:18;;;;;;;;;;;;;;;18.25;63.18;100628.69;5048143;28;1565;-44
2021/11/22 12:45:03;;;;;;;;;;;;;;;18.20;63.44;100624.69;5044804;28;1678;-43
2021/11/22 12:47:31;;;;;;;;;;;;;;;18.20;62.75;100630.88;5048712;28;1895;-42
2021/11/22 12:50:11;;;;;;;;;;;;;;;18.21;62.70;100637.97;5045105;28;1734;-43
2021/11/22 12:52:39;;;;;;;;;;;;;;;18.17;62.01;100631.19;5044235;28;1544;-43
2021/11/22 12:55:12;;;;;;;;;;;;;;;18.18;62.37;100630.19;5049969;28;1469;-43
2021/11/22 12:57:39;;;;;;;;;;;;;;;18.15;62.13;100632.31;5036024;28;1983;-42
2021/11/22 13:00:25;;;;;;;;;;;;;;;18.12;62.54;100627.19;5039092;28;1613;-43
2021/11/22 13:03:02;;;;;;;;;;;;;;;18.08;62.39;100616.78;5040565;28;1522;-43